createdAt,value
2022-09-30T13:41:55.470Z,4.28
2022-09-30T13:44:40.005Z,3.50
2022-09-30T13:47:29.853Z,4.10
2022-09-30T13:50:04.879Z,4.22
2022-09-30T13:52:34.708Z,4.10
2022-09-30T13:55:18.661Z,3.70
2022-09-30T13:58:04.670Z,2.40
2022-09-30T14:00:57.058Z,2.60
2022-09-30T14:03:59.367Z,2.90
2022-09-30T14:06:41.978Z,2.13
2022-09-30T14:09:23.656Z,1.90
2022-09-30T14:12:16.421Z,3.35
2022-09-30T14:15:07.890Z,3.45
2022-09-30T14:18:05.423Z,3.58
2022-09-30T14:21:02.740Z,3.53
2022-09-30T14:23:29.812Z,3.30
2022-09-30T14:26:23.907Z,3.05
2022-09-30T14:29:02.245Z,3.33
2022-09-30T14:31:32.234Z,1.98
2022-09-30T14:33:59.978Z,1.77
2022-09-30T14:36:27.082Z,2.47
2022-09-30T14:38:59.432Z,3.80
2022-09-30T14:41:28.940Z,2.80
2022-09-30T14:44:04.472Z,2.40
2022-09-30T14:46:38.814Z,3.25
2022-09-30T14:49:15.137Z,1.50
2022-09-30T14:51:45.084Z,2.05
2022-09-30T14:54:23.609Z,1.40
2022-09-30T14:56:53.256Z,1.65
2022-09-30T14:59:20.261Z,2.28
2022-09-30T15:01:51.210Z,2.40
2022-09-30T15:04:22.101Z,3.28
2022-09-30T15:06:51.228Z,2.70
2022-09-30T15:09:32.573Z,2.35
2022-09-30T15:12:05.758Z,2.83
2022-09-30T15:14:33.098Z,2.40
2022-09-30T15:17:05.215Z,2.75
2022-09-30T15:19:34.960Z,2.45
2022-09-30T15:22:04.804Z,2.17
2022-09-30T15:24:33.132Z,2.20
2022-09-30T15:27:01.222Z,2.88
2022-09-30T15:29:28.451Z,2.13
2022-09-30T15:32:15.971Z,2.90
2022-09-30T15:34:46.800Z,2.30
2022-09-30T15:37:22.826Z,3.50
2022-09-30T15:40:09.297Z,3.55
2022-09-30T15:42:45.721Z,2.90
2022-09-30T15:45:35.440Z,3.20
2022-09-30T15:48:07.329Z,5.05
2022-09-30T15:50:53.896Z,3.88
2022-09-30T15:53:25.621Z,2.75
2022-09-30T15:55:56.012Z,3.00
2022-09-30T15:58:40.317Z,3.45
2022-09-30T16:01:21.469Z,3.83
2022-09-30T16:03:59.454Z,4.47
2022-09-30T16:06:35.402Z,4.72
2022-09-30T16:09:08.386Z,4.03
2022-09-30T16:11:41.063Z,4.45
2022-09-30T16:14:12.496Z,4.28
2022-09-30T16:16:39.610Z,4.10
2022-09-30T16:19:20.287Z,3.47
2022-09-30T16:21:51.426Z,3.70
2022-09-30T16:24:21.348Z,3.75
2022-09-30T16:26:50.043Z,4.43
2022-09-30T16:29:17.918Z,4.25
2022-09-30T16:31:49.524Z,5.95
2022-09-30T16:34:24.155Z,5.97
2022-09-30T16:36:53.721Z,5.70
2022-09-30T16:39:21.317Z,6.50
2022-09-30T16:41:49.755Z,5.75
2022-09-30T16:44:17.078Z,5.43
2022-09-30T16:46:44.063Z,4.40
2022-09-30T16:49:15.915Z,5.93
2022-09-30T16:51:43.674Z,5.28
2022-09-30T16:54:12.274Z,5.65
2022-09-30T16:56:39.425Z,4.88
2022-09-30T16:59:17.662Z,4.30
2022-09-30T17:01:45.921Z,4.90
2022-09-30T17:04:15.329Z,4.45
2022-09-30T17:06:44.164Z,6.03
2022-09-30T17:09:11.191Z,4.07
2022-09-30T17:11:38.334Z,4.35
2022-09-30T17:14:06.929Z,4.40
2022-09-30T17:16:34.373Z,5.28
2022-09-30T17:19:01.842Z,4.28
2022-09-30T17:21:28.869Z,3.97
2022-09-30T17:23:56.504Z,4.90
2022-09-30T17:26:23.509Z,5.25
2022-09-30T17:28:50.558Z,4.57
2022-09-30T17:31:18.254Z,5.45
2022-09-30T17:33:46.072Z,5.20
2022-09-30T17:36:14.049Z,5.63
2022-09-30T17:38:41.357Z,5.95
2022-09-30T17:41:31.714Z,8.55
2022-09-30T17:44:02.356Z,9.55
2022-09-30T17:46:41.260Z,8.95
2022-09-30T17:49:09.043Z,9.18
2022-09-30T17:51:37.659Z,6.20
2022-09-30T17:54:07.799Z,5.88
2022-09-30T17:56:34.924Z,6.60
2022-09-30T17:59:02.663Z,7.90
2022-09-30T18:01:31.104Z,5.25
2022-09-30T18:04:00.326Z,5.10
2022-09-30T18:06:28.629Z,4.53
2022-09-30T18:08:55.899Z,4.38
2022-09-30T18:11:28.218Z,4.82
2022-09-30T18:13:58.040Z,5.40
2022-09-30T18:16:30.164Z,5.00
2022-09-30T18:22:26.943Z,5.35
2022-09-30T18:25:12.320Z,4.95
2022-09-30T18:27:39.374Z,5.43
2022-09-30T18:30:08.163Z,6.25
2022-09-30T18:32:35.240Z,6.32
2022-09-30T18:35:04.545Z,5.18
2022-09-30T18:37:33.141Z,6.50
2022-09-30T18:40:00.235Z,4.82
2022-09-30T18:42:28.344Z,4.78
2022-09-30T18:44:55.468Z,4.60
2022-09-30T18:47:22.472Z,5.13
2022-09-30T18:49:49.482Z,5.15
2022-09-30T18:52:17.288Z,4.85
2022-09-30T18:54:45.618Z,4.93
2022-09-30T18:57:12.632Z,6.20
2022-09-30T18:59:40.017Z,5.00
2022-09-30T19:02:07.325Z,4.78
2022-09-30T19:04:35.136Z,5.30
2022-09-30T19:07:02.115Z,4.65
2022-09-30T19:09:29.163Z,4.97
2022-09-30T19:11:56.193Z,5.38
2022-09-30T19:14:23.805Z,4.43
2022-09-30T19:16:52.260Z,4.63
2022-09-30T19:19:20.428Z,5.13
2022-09-30T19:21:48.609Z,4.32
2022-09-30T19:24:17.150Z,4.70
2022-09-30T19:26:46.727Z,4.45
2022-09-30T19:29:13.776Z,4.00
2022-09-30T19:31:42.830Z,4.40
2022-09-30T19:34:11.047Z,4.07
2022-09-30T19:36:49.812Z,6.82
2022-09-30T19:39:18.754Z,5.82
2022-09-30T19:41:49.929Z,6.97
2022-09-30T19:44:19.040Z,4.82
2022-09-30T19:46:54.780Z,5.10
2022-09-30T19:49:23.570Z,7.18
2022-09-30T19:51:54.295Z,8.85
2022-09-30T19:54:37.069Z,4.93
2022-09-30T19:57:07.120Z,5.07
2022-09-30T19:59:35.065Z,4.97
2022-09-30T20:02:02.389Z,5.40
2022-09-30T20:04:30.083Z,4.93
2022-09-30T20:06:57.069Z,4.70
2022-09-30T20:09:24.280Z,4.50
2022-09-30T20:11:51.478Z,4.03
2022-09-30T20:14:36.869Z,4.30
2022-09-30T20:17:03.874Z,4.97
2022-09-30T20:19:30.894Z,5.85
2022-09-30T20:21:58.251Z,7.70
2022-09-30T20:24:25.953Z,5.50
2022-09-30T20:26:52.938Z,7.63
2022-09-30T20:29:20.538Z,6.15
2022-09-30T20:31:49.044Z,4.65
2022-09-30T20:34:17.757Z,3.47
2022-09-30T20:36:47.116Z,4.05
2022-09-30T20:39:14.268Z,4.03
2022-09-30T20:41:41.742Z,3.60
2022-09-30T20:44:11.934Z,3.72
2022-09-30T20:46:41.349Z,3.60
2022-09-30T20:49:09.094Z,6.07
2022-09-30T20:51:36.245Z,6.80
2022-09-30T20:54:03.508Z,7.57
2022-09-30T20:56:49.633Z,6.07
2022-09-30T20:59:17.702Z,3.70
2022-09-30T21:01:44.744Z,3.35
2022-09-30T21:04:12.237Z,3.30
2022-09-30T21:06:39.544Z,3.17
2022-09-30T21:09:06.877Z,2.80
2022-09-30T21:11:34.221Z,2.97
2022-09-30T21:14:01.768Z,3.38
2022-09-30T21:16:29.627Z,3.08
2022-09-30T21:18:56.798Z,2.38
2022-09-30T21:21:25.680Z,2.92
2022-09-30T21:23:57.370Z,2.80
2022-09-30T21:26:24.795Z,3.30
2022-09-30T21:28:55.862Z,3.63
2022-09-30T21:31:27.405Z,2.80
2022-09-30T21:33:58.090Z,3.13
2022-09-30T21:36:26.639Z,3.30
2022-09-30T21:38:54.855Z,3.30
2022-09-30T21:41:22.796Z,3.47
2022-09-30T21:43:49.845Z,3.65
2022-09-30T21:46:18.544Z,4.40
2022-09-30T21:48:48.343Z,3.85
2022-09-30T21:51:16.704Z,4.05
2022-09-30T21:53:43.761Z,4.53
2022-09-30T21:56:12.175Z,4.30
2022-09-30T21:58:39.372Z,4.25
2022-09-30T22:01:07.263Z,4.65
2022-09-30T22:03:39.486Z,4.43
2022-09-30T22:06:08.514Z,4.85
2022-09-30T22:08:40.010Z,4.25
2022-09-30T22:11:11.043Z,4.75
2022-09-30T22:13:46.991Z,4.38
2022-09-30T22:16:19.712Z,5.07
2022-09-30T22:18:47.054Z,5.75
2022-09-30T22:21:15.989Z,5.30
2022-09-30T22:23:49.642Z,5.80
2022-09-30T22:26:23.140Z,5.45
2022-09-30T22:28:56.602Z,6.07
2022-09-30T22:31:26.220Z,5.63
2022-09-30T22:34:17.378Z,5.32
2022-09-30T22:37:03.343Z,5.35
2022-09-30T22:39:31.210Z,5.20
2022-09-30T22:41:58.796Z,6.10
2022-09-30T22:44:31.757Z,6.20
2022-09-30T22:47:00.133Z,6.30
2022-09-30T22:49:28.165Z,6.10
2022-09-30T22:51:56.896Z,6.28
2022-09-30T22:54:26.041Z,6.45
2022-09-30T22:56:54.780Z,6.20
2022-09-30T22:59:23.567Z,6.30
2022-09-30T23:01:51.398Z,5.95
2022-09-30T23:04:18.629Z,6.47
2022-09-30T23:06:53.759Z,6.85
2022-09-30T23:09:21.358Z,6.28
2022-09-30T23:11:53.196Z,6.15
2022-09-30T23:14:23.588Z,6.78
2022-09-30T23:16:51.550Z,6.25
2022-09-30T23:19:19.813Z,7.35
2022-09-30T23:21:47.003Z,6.50
2022-09-30T23:24:18.866Z,6.35
2022-09-30T23:26:48.790Z,6.97
2022-09-30T23:29:16.921Z,5.75
2022-09-30T23:31:43.975Z,6.82
2022-09-30T23:34:11.032Z,6.63
2022-09-30T23:36:38.399Z,7.05
2022-09-30T23:39:13.497Z,7.03
2022-09-30T23:41:40.857Z,6.65
2022-09-30T23:44:09.963Z,7.13
2022-09-30T23:46:37.097Z,7.10
2022-09-30T23:49:04.166Z,6.50
2022-09-30T23:51:34.245Z,7.32
2022-09-30T23:54:02.252Z,7.18
2022-09-30T23:56:29.474Z,6.72
2022-09-30T23:58:57.348Z,6.72
